createdAt,value
2024-01-16T00:01:29.538Z,24.51
2024-01-16T00:03:57.637Z,22.61
2024-01-16T00:06:26.851Z,23.80
2024-01-16T00:08:54.657Z,24.96
2024-01-16T00:11:23.013Z,23.99
2024-01-16T00:13:50.790Z,23.18
2024-01-16T00:16:18.441Z,22.29
2024-01-16T00:18:46.822Z,21.83
2024-01-16T00:21:14.511Z,21.73
2024-01-16T00:23:43.698Z,23.33
2024-01-16T00:26:21.532Z,22.41
2024-01-16T00:28:49.265Z,21.75
2024-01-16T00:31:16.972Z,22.05
2024-01-16T00:33:45.153Z,22.36
2024-01-16T00:36:12.887Z,22.07
2024-01-16T00:38:40.722Z,21.88
2024-01-16T00:41:10.678Z,23.96
2024-01-16T00:43:38.899Z,23.93
2024-01-16T00:46:07.395Z,23.25
2024-01-16T00:48:35.495Z,22.76
2024-01-16T00:51:03.255Z,21.12
2024-01-16T00:53:31.257Z,22.30
2024-01-16T00:55:59.000Z,22.97
2024-01-16T00:58:28.198Z,23.57
2024-01-16T01:00:56.718Z,21.86
2024-01-16T01:03:24.438Z,23.04
2024-01-16T01:05:52.211Z,23.04
2024-01-16T01:08:20.670Z,24.00
2024-01-16T01:10:48.747Z,23.13
2024-01-16T01:13:16.448Z,22.39
2024-01-16T01:15:45.628Z,22.31
2024-01-16T01:18:14.060Z,23.17
2024-01-16T01:20:42.025Z,22.82
2024-01-16T01:23:11.055Z,23.61
2024-01-16T01:25:39.296Z,22.83
2024-01-16T01:28:07.174Z,21.65
2024-01-16T01:30:35.117Z,22.03
2024-01-16T01:33:05.121Z,23.94
2024-01-16T01:35:32.467Z,22.88
2024-01-16T01:38:00.164Z,22.34
2024-01-16T01:40:28.438Z,21.59
2024-01-16T01:42:56.132Z,22.17
2024-01-16T01:45:23.662Z,22.03
2024-01-16T01:47:52.019Z,24.80
2024-01-16T01:50:21.334Z,21.63
2024-01-16T01:52:49.042Z,23.72
2024-01-16T01:55:17.313Z,22.16
2024-01-16T01:57:45.053Z,22.37
2024-01-16T02:00:13.946Z,21.84
2024-01-16T02:02:44.054Z,21.63
2024-01-16T02:05:11.978Z,23.80
2024-01-16T02:07:41.235Z,22.20
2024-01-16T02:10:10.350Z,24.95
2024-01-16T02:12:38.153Z,22.62
2024-01-16T02:15:06.659Z,22.59
2024-01-16T02:17:34.684Z,21.72
2024-01-16T02:20:02.412Z,21.84
2024-01-16T02:22:33.002Z,22.09
2024-01-16T02:25:02.597Z,23.10
2024-01-16T02:27:30.163Z,23.99
2024-01-16T02:29:58.020Z,22.57
2024-01-16T02:32:26.094Z,21.65
2024-01-16T02:34:53.762Z,21.64
2024-01-16T02:37:21.703Z,22.46
2024-01-16T02:39:49.712Z,22.00
2024-01-16T02:42:18.821Z,21.99
2024-01-16T02:44:46.566Z,21.70
2024-01-16T02:47:14.595Z,22.63
2024-01-16T02:49:42.228Z,21.05
2024-01-16T02:52:10.151Z,21.55
2024-01-16T02:54:38.112Z,22.43
2024-01-16T02:57:05.975Z,21.94
2024-01-16T02:59:35.076Z,21.51
2024-01-16T03:02:03.551Z,22.07
2024-01-16T03:04:31.320Z,21.19
2024-01-16T03:06:58.876Z,21.86
2024-01-16T03:09:26.627Z,22.04
2024-01-16T03:11:54.370Z,21.49
2024-01-16T03:14:22.054Z,21.93
2024-01-16T03:16:51.460Z,21.74
2024-01-16T03:19:19.208Z,22.33
2024-01-16T03:21:46.841Z,21.90
2024-01-16T03:24:14.886Z,21.05
2024-01-16T03:26:42.584Z,21.43
2024-01-16T03:29:10.621Z,20.78
2024-01-16T03:31:39.204Z,22.47
2024-01-16T03:34:08.421Z,20.21
2024-01-16T03:36:36.047Z,22.80
2024-01-16T03:39:04.268Z,21.05
2024-01-16T03:41:31.897Z,22.14
2024-01-16T03:43:59.519Z,24.25
2024-01-16T03:46:27.803Z,22.56
2024-01-16T03:48:55.542Z,22.19
2024-01-16T03:51:24.563Z,23.00
2024-01-16T03:53:52.869Z,21.25
2024-01-16T03:56:20.508Z,21.99
2024-01-16T03:58:48.409Z,22.32
2024-01-16T04:01:16.323Z,20.71
2024-01-16T04:03:44.002Z,22.69
2024-01-16T04:06:18.247Z,22.17
2024-01-16T04:08:47.505Z,21.35
2024-01-16T04:11:15.612Z,22.44
2024-01-16T04:13:43.733Z,23.35
2024-01-16T04:16:13.933Z,20.68
2024-01-16T04:18:45.201Z,21.81
2024-01-16T04:21:13.274Z,22.46
2024-01-16T04:23:42.479Z,23.18
2024-01-16T04:26:11.967Z,22.86
2024-01-16T04:28:39.655Z,23.62
2024-01-16T04:31:07.532Z,20.45
2024-01-16T04:33:36.137Z,21.66
2024-01-16T04:36:04.193Z,23.00
2024-01-16T04:38:31.865Z,21.95
2024-01-16T04:41:03.030Z,21.23
2024-01-16T04:43:32.413Z,22.44
2024-01-16T04:46:02.661Z,22.42
2024-01-16T04:48:32.110Z,21.51
2024-01-16T04:50:59.931Z,20.88
2024-01-16T04:53:27.510Z,20.66
2024-01-16T04:55:55.501Z,20.22
2024-01-16T04:58:23.132Z,21.00
2024-01-16T05:00:52.288Z,21.06
2024-01-16T05:03:20.086Z,20.99
2024-01-16T05:05:48.333Z,20.93
2024-01-16T05:08:16.205Z,20.98
2024-01-16T05:10:45.738Z,20.59
2024-01-16T05:13:13.640Z,21.92
2024-01-16T05:15:42.158Z,22.25
2024-01-16T05:18:11.674Z,21.77
2024-01-16T05:20:39.467Z,19.94
2024-01-16T05:23:07.071Z,20.81
2024-01-16T05:25:35.330Z,20.75
2024-01-16T05:28:03.075Z,21.05
2024-01-16T05:30:30.788Z,20.98
2024-01-16T05:32:58.858Z,20.87
2024-01-16T05:35:28.057Z,20.25
2024-01-16T05:37:55.798Z,21.05
2024-01-16T05:40:24.083Z,20.96
2024-01-16T05:42:52.215Z,20.81
2024-01-16T05:45:19.990Z,21.18
2024-01-16T05:47:48.003Z,19.79
2024-01-16T05:50:15.990Z,20.37
2024-01-16T05:52:47.150Z,19.37
2024-01-16T05:55:15.796Z,20.00
2024-01-16T05:57:43.437Z,20.91
2024-01-16T06:00:12.088Z,20.89
2024-01-16T06:02:40.642Z,19.89
2024-01-16T06:05:08.782Z,20.56
2024-01-16T06:07:36.371Z,20.44
2024-01-16T06:10:07.203Z,20.97
2024-01-16T06:12:36.005Z,21.34
2024-01-16T06:15:03.744Z,22.64
2024-01-16T06:17:32.020Z,22.61
2024-01-16T06:19:59.943Z,20.73
2024-01-16T06:22:27.586Z,22.45
2024-01-16T06:24:56.763Z,21.01
2024-01-16T06:27:26.243Z,22.77
2024-01-16T06:29:53.763Z,21.29
2024-01-16T06:32:21.715Z,22.57
2024-01-16T06:34:49.429Z,20.77
2024-01-16T06:37:17.045Z,22.23
2024-01-16T06:39:45.169Z,21.90
2024-01-16T06:42:12.935Z,20.95
2024-01-16T06:44:42.047Z,22.55
2024-01-16T06:47:10.112Z,21.44
2024-01-16T06:49:37.907Z,22.01
2024-01-16T06:52:05.709Z,21.96
2024-01-16T06:54:33.477Z,22.34
2024-01-16T06:57:01.101Z,21.28
2024-01-16T06:59:29.174Z,21.60
2024-01-16T07:01:58.271Z,22.75
2024-01-16T07:04:25.974Z,22.31
2024-01-16T07:06:53.862Z,21.88
2024-01-16T07:09:21.718Z,22.42
2024-01-16T07:11:49.362Z,23.31
2024-01-16T07:14:17.402Z,23.68
2024-01-16T07:16:45.431Z,22.16
2024-01-16T07:19:14.749Z,21.51
2024-01-16T07:21:42.735Z,21.28
2024-01-16T07:24:10.732Z,22.04
2024-01-16T07:26:38.519Z,21.12
2024-01-16T07:29:06.579Z,21.52
2024-01-16T07:31:34.540Z,20.34
2024-01-16T07:34:02.322Z,20.08
2024-01-16T07:36:32.278Z,21.38
2024-01-16T07:39:00.067Z,22.38
2024-01-16T07:41:27.786Z,22.19
2024-01-16T07:43:55.750Z,21.37
2024-01-16T07:46:23.697Z,22.42
2024-01-16T07:48:51.481Z,20.81
2024-01-16T07:51:19.306Z,22.15
2024-01-16T07:53:48.703Z,22.07
2024-01-16T07:56:16.466Z,22.26
2024-01-16T07:58:44.927Z,23.26
2024-01-16T08:01:13.186Z,23.79
2024-01-16T08:03:41.226Z,23.74
2024-01-16T08:06:09.767Z,22.04
2024-01-16T08:08:38.201Z,21.38
2024-01-16T08:11:07.472Z,22.07
2024-01-16T08:13:35.537Z,21.35
2024-01-16T08:16:03.781Z,22.74
2024-01-16T08:18:31.658Z,21.21
2024-01-16T08:20:59.496Z,21.07
2024-01-16T08:23:27.726Z,21.70
2024-01-16T08:25:55.479Z,22.27
2024-01-16T08:28:24.978Z,21.04
2024-01-16T08:30:53.311Z,21.46
2024-01-16T08:33:27.931Z,21.76
2024-01-16T08:36:02.306Z,20.90
2024-01-16T08:38:30.311Z,21.49
2024-01-16T08:40:58.355Z,21.60
2024-01-16T08:43:27.957Z,21.47
2024-01-16T08:45:55.715Z,21.93
2024-01-16T08:48:23.683Z,21.04
2024-01-16T08:50:51.920Z,21.54
2024-01-16T08:53:19.742Z,21.40
2024-01-16T08:55:47.482Z,21.07
2024-01-16T08:58:16.240Z,21.17
2024-01-16T09:00:45.774Z,20.68
2024-01-16T09:03:13.844Z,20.86
2024-01-16T09:05:41.986Z,21.16
2024-01-16T09:08:11.822Z,20.98
2024-01-16T09:10:41.733Z,21.93
2024-01-16T09:13:09.407Z,21.71
2024-01-16T09:15:37.406Z,21.06
2024-01-16T09:18:07.346Z,21.31
2024-01-16T09:20:37.364Z,21.36
2024-01-16T09:23:05.222Z,21.05
2024-01-16T09:25:33.535Z,22.96
2024-01-16T09:28:01.319Z,21.53
2024-01-16T09:30:29.174Z,20.84
2024-01-16T09:32:57.955Z,21.56
2024-01-16T09:35:27.237Z,21.99
2024-01-16T09:37:54.939Z,21.52
2024-01-16T09:40:26.068Z,20.26
2024-01-16T09:42:54.032Z,21.40
2024-01-16T09:45:22.389Z,21.70
2024-01-16T09:47:52.640Z,21.66
2024-01-16T09:50:21.417Z,22.24
2024-01-16T09:52:50.654Z,25.61
2024-01-16T09:55:18.952Z,22.38
2024-01-16T09:57:47.715Z,25.70
2024-01-16T10:00:16.516Z,23.17
2024-01-16T10:02:44.817Z,23.69
2024-01-16T10:05:13.843Z,24.91
2024-01-16T10:07:43.339Z,22.22
2024-01-16T10:10:13.567Z,21.09
2024-01-16T10:12:41.780Z,22.34
2024-01-16T10:15:10.300Z,21.15
2024-01-16T10:17:39.795Z,21.04
2024-01-16T10:20:09.021Z,21.17
2024-01-16T10:22:36.817Z,21.97
2024-01-16T10:25:08.842Z,21.87
2024-01-16T10:27:38.846Z,21.68
2024-01-16T10:30:08.331Z,21.42
2024-01-16T10:32:37.991Z,21.56
2024-01-16T10:35:07.986Z,22.33
2024-01-16T10:37:46.130Z,21.62
2024-01-16T10:40:17.357Z,21.95
2024-01-16T10:42:47.007Z,21.44
2024-01-16T10:45:20.744Z,21.25
2024-01-16T10:47:49.093Z,21.91
2024-01-16T10:50:17.199Z,22.94
2024-01-16T10:52:48.892Z,21.68
2024-01-16T10:55:21.617Z,21.44
2024-01-16T10:57:52.587Z,21.06
2024-01-16T11:00:22.049Z,22.09
2024-01-16T11:02:56.025Z,21.89
2024-01-16T11:05:27.106Z,22.04
2024-01-16T11:07:57.320Z,21.68
2024-01-16T11:10:25.598Z,21.61
2024-01-16T11:12:56.981Z,22.56
2024-01-16T11:15:26.643Z,21.86
2024-01-16T11:17:55.185Z,21.43
2024-01-16T11:20:38.743Z,22.45
2024-01-16T11:23:14.696Z,22.21
2024-01-16T11:25:42.403Z,22.45
2024-01-16T11:28:13.136Z,22.22
2024-01-16T11:30:42.562Z,23.62
2024-01-16T11:33:43.557Z,24.11
2024-01-16T11:36:44.876Z,22.86
2024-01-16T11:39:19.128Z,23.80
2024-01-16T11:41:51.241Z,23.23
2024-01-16T11:44:42.542Z,24.37
2024-01-16T11:47:11.275Z,22.87
2024-01-16T11:49:39.377Z,22.45
2024-01-16T11:52:07.536Z,22.26
2024-01-16T11:54:35.815Z,22.88
2024-01-16T11:57:27.424Z,23.38
2024-01-16T12:00:04.075Z,23.95
2024-01-16T12:02:53.718Z,23.31
2024-01-16T12:05:22.592Z,23.21
2024-01-16T12:07:51.238Z,24.73
2024-01-16T12:10:20.118Z,23.94
2024-01-16T12:12:49.674Z,23.27
2024-01-16T12:15:20.961Z,22.17
2024-01-16T12:17:56.520Z,22.60
2024-01-16T12:20:25.713Z,22.01
2024-01-16T12:22:58.013Z,23.02
2024-01-16T12:25:59.354Z,24.28
2024-01-16T12:28:19.176Z,23.36
2024-01-16T12:30:53.112Z,22.83
2024-01-16T12:33:24.215Z,23.05
2024-01-16T12:36:01.535Z,22.89
2024-01-16T12:38:30.448Z,23.16
2024-01-16T12:40:59.502Z,23.37
2024-01-16T12:43:27.202Z,23.80
2024-01-16T12:45:59.665Z,24.21
2024-01-16T12:48:28.201Z,24.81
2024-01-16T12:51:00.808Z,26.75
2024-01-16T12:53:28.855Z,25.67
2024-01-16T12:55:59.837Z,23.17
2024-01-16T12:58:34.313Z,23.41
2024-01-16T13:01:33.849Z,24.17
2024-01-16T13:04:07.104Z,24.21
2024-01-16T13:06:35.450Z,23.54
2024-01-16T13:09:07.906Z,23.77
2024-01-16T13:11:46.704Z,23.57
2024-01-16T13:14:14.974Z,22.93
2024-01-16T13:16:44.291Z,23.52
2024-01-16T13:19:12.103Z,24.12
2024-01-16T13:21:40.099Z,23.01
2024-01-16T13:24:08.811Z,23.73
2024-01-16T13:26:37.306Z,25.36
2024-01-16T13:29:05.393Z,24.17
2024-01-16T13:31:33.538Z,23.73
2024-01-16T13:34:03.120Z,23.87
2024-01-16T13:39:01.843Z,24.77
2024-01-16T13:41:29.652Z,23.55
2024-01-16T13:43:58.036Z,23.90
2024-01-16T13:46:37.039Z,25.28
2024-01-16T13:49:15.855Z,25.22
2024-01-16T13:51:45.758Z,24.97
2024-01-16T13:54:14.310Z,24.08
2024-01-16T13:56:58.459Z,25.29
2024-01-16T13:59:32.728Z,24.27
2024-01-16T14:02:00.944Z,23.83
2024-01-16T14:04:30.238Z,23.94
2024-01-16T14:07:10.942Z,23.66
2024-01-16T14:09:43.504Z,23.67
2024-01-16T14:12:12.581Z,23.37
2024-01-16T14:14:42.368Z,24.90
2024-01-16T14:17:11.014Z,24.30
2024-01-16T14:19:40.261Z,25.65
2024-01-16T14:22:08.529Z,24.44
2024-01-16T14:24:37.900Z,24.12
2024-01-16T14:27:05.881Z,23.71
2024-01-16T14:29:33.704Z,23.53
2024-01-16T14:32:01.843Z,25.26
2024-01-16T14:34:29.507Z,24.13
2024-01-16T14:36:58.926Z,24.91
2024-01-16T14:39:27.734Z,25.22
2024-01-16T14:41:56.108Z,23.99
2024-01-16T14:44:24.086Z,24.03
2024-01-16T14:46:53.726Z,24.71
2024-01-16T14:49:21.733Z,23.15
2024-01-16T14:51:49.659Z,23.69
2024-01-16T14:54:20.057Z,23.85
2024-01-16T14:56:48.003Z,25.23
2024-01-16T14:59:16.539Z,24.92
2024-01-16T15:01:45.729Z,23.12
2024-01-16T15:04:13.979Z,23.80
2024-01-16T15:06:42.236Z,24.14
2024-01-16T15:09:10.800Z,25.69
2024-01-16T15:11:40.310Z,22.65
2024-01-16T15:14:08.119Z,22.51
2024-01-16T15:16:36.503Z,23.21
2024-01-16T15:19:04.411Z,23.68
2024-01-16T15:21:32.580Z,24.07
2024-01-16T15:24:00.940Z,24.35
2024-01-16T15:26:28.720Z,25.59
2024-01-16T15:28:58.159Z,24.39
2024-01-16T15:31:26.159Z,22.97
2024-01-16T15:33:53.889Z,25.00
2024-01-16T15:36:22.504Z,24.42
2024-01-16T15:38:50.294Z,24.88
2024-01-16T15:41:18.195Z,23.28
2024-01-16T15:43:45.960Z,23.64
2024-01-16T15:46:15.372Z,24.27
2024-01-16T15:48:43.140Z,24.28
2024-01-16T15:51:11.331Z,23.00
2024-01-16T15:53:39.427Z,23.72
2024-01-16T15:56:07.271Z,25.62
2024-01-16T15:58:35.256Z,23.49
2024-01-16T16:01:03.590Z,23.92
2024-01-16T16:03:33.212Z,23.53
2024-01-16T16:06:00.982Z,23.84
2024-01-16T16:08:28.936Z,22.41
2024-01-16T16:10:57.289Z,24.37
2024-01-16T16:13:25.244Z,23.59
2024-01-16T16:15:53.206Z,23.73
2024-01-16T16:18:21.077Z,22.62
2024-01-16T16:20:50.429Z,24.14
2024-01-16T16:23:18.637Z,24.61
2024-01-16T16:25:47.971Z,22.77
2024-01-16T16:28:15.852Z,24.27
2024-01-16T16:30:43.699Z,24.64
2024-01-16T16:33:11.631Z,23.87
2024-01-16T16:35:39.742Z,23.80
2024-01-16T16:38:09.403Z,22.88
2024-01-16T16:40:38.149Z,24.15
2024-01-16T16:43:06.310Z,25.28
2024-01-16T16:45:34.395Z,24.64
2024-01-16T16:48:02.275Z,23.05
2024-01-16T16:50:30.402Z,23.69
2024-01-16T16:52:58.461Z,24.36
2024-01-16T16:55:27.807Z,24.05
2024-01-16T16:57:55.869Z,22.31
2024-01-16T17:00:24.077Z,23.29
2024-01-16T17:02:52.224Z,23.34
2024-01-16T17:05:20.386Z,24.45
2024-01-16T17:07:48.985Z,22.38
2024-01-16T17:10:16.985Z,22.60
2024-01-16T17:12:46.588Z,23.66
2024-01-16T17:15:15.004Z,24.92
2024-01-16T17:17:42.940Z,23.34
2024-01-16T17:20:12.436Z,22.77
2024-01-16T17:22:40.873Z,22.48
2024-01-16T17:25:09.323Z,22.62
2024-01-16T17:27:37.934Z,23.95
2024-01-16T17:30:09.922Z,24.30
2024-01-16T17:32:37.714Z,24.24
2024-01-16T17:35:06.370Z,24.32
2024-01-16T17:37:35.015Z,23.36
2024-01-16T17:40:02.968Z,23.58
2024-01-16T17:42:31.075Z,23.79
2024-01-16T17:44:59.220Z,24.06
2024-01-16T17:47:28.709Z,22.84
2024-01-16T17:49:56.529Z,23.01
2024-01-16T17:52:24.887Z,22.29
2024-01-16T17:54:52.711Z,21.98
2024-01-16T17:57:20.623Z,23.46
2024-01-16T17:59:49.444Z,22.15
2024-01-16T18:02:17.264Z,23.56
2024-01-16T18:04:46.471Z,22.78
2024-01-16T18:07:14.675Z,22.54
2024-01-16T18:09:44.467Z,23.14
2024-01-16T18:12:13.471Z,22.68
2024-01-16T18:14:41.337Z,21.83
2024-01-16T18:17:09.637Z,23.86
2024-01-16T18:19:37.589Z,21.90
2024-01-16T18:22:07.285Z,23.96
2024-01-16T18:24:35.109Z,23.62
2024-01-16T18:27:02.861Z,22.54
2024-01-16T18:29:31.355Z,22.79
2024-01-16T18:31:59.751Z,23.14
2024-01-16T18:34:27.487Z,23.22
2024-01-16T18:36:55.655Z,23.18
2024-01-16T18:39:25.146Z,23.44
2024-01-16T18:41:53.103Z,21.89
2024-01-16T18:44:21.177Z,23.74
2024-01-16T18:46:49.160Z,24.28
2024-01-16T18:49:17.407Z,23.29
2024-01-16T18:51:46.132Z,23.67
2024-01-16T18:54:13.974Z,23.94
2024-01-16T18:56:43.245Z,22.87
2024-01-16T18:59:11.347Z,23.69
2024-01-16T19:01:39.317Z,22.42
2024-01-16T19:04:07.097Z,22.50
2024-01-16T19:06:35.430Z,24.08
2024-01-16T19:09:03.692Z,24.27
2024-01-16T19:11:31.608Z,23.52
2024-01-16T19:14:01.158Z,23.29
2024-01-16T19:16:29.416Z,23.30
2024-01-16T19:18:57.601Z,23.65
2024-01-16T19:21:25.516Z,24.24
2024-01-16T19:23:53.315Z,25.32
2024-01-16T19:26:21.317Z,24.06
2024-01-16T19:28:49.127Z,24.79
2024-01-16T19:31:18.948Z,24.20
2024-01-16T19:33:47.100Z,23.75
2024-01-16T19:36:15.285Z,22.18
2024-01-16T19:38:43.050Z,21.76
2024-01-16T19:41:11.159Z,22.95
2024-01-16T19:43:39.138Z,22.15
2024-01-16T19:46:06.927Z,21.89
2024-01-16T19:48:36.714Z,23.71
2024-01-16T19:51:05.279Z,24.75
2024-01-16T19:53:33.286Z,23.96
2024-01-16T19:56:01.103Z,23.25
2024-01-16T19:58:29.099Z,22.83
2024-01-16T20:00:57.601Z,22.97
2024-01-16T20:03:25.587Z,23.60
2024-01-16T20:05:55.190Z,24.26
2024-01-16T20:08:22.998Z,23.40
2024-01-16T20:10:51.652Z,23.50
2024-01-16T20:13:19.629Z,23.96
2024-01-16T20:15:48.005Z,22.37
2024-01-16T20:18:16.190Z,24.25
2024-01-16T20:20:44.834Z,22.71
2024-01-16T20:23:14.213Z,23.07
2024-01-16T20:25:41.876Z,23.66
2024-01-16T20:28:09.787Z,22.15
2024-01-16T20:30:37.630Z,22.78
2024-01-16T20:33:05.758Z,23.23
2024-01-16T20:35:34.033Z,23.03
2024-01-16T20:38:01.878Z,22.15
2024-01-16T20:40:30.921Z,22.80
2024-01-16T20:42:59.093Z,22.13
2024-01-16T20:45:26.868Z,22.94
2024-01-16T20:47:54.813Z,22.82
2024-01-16T20:50:23.024Z,23.72
2024-01-16T20:52:51.214Z,22.99
2024-01-16T20:55:18.965Z,22.35
2024-01-16T20:57:49.050Z,23.35
2024-01-16T21:00:17.871Z,22.58
2024-01-16T21:02:45.726Z,23.11
2024-01-16T21:05:13.973Z,23.63
2024-01-16T21:07:42.172Z,23.98
2024-01-16T21:10:10.873Z,22.43
2024-01-16T21:12:38.737Z,22.58
2024-01-16T21:15:09.196Z,22.40
2024-01-16T21:17:37.461Z,23.21
2024-01-16T21:20:07.325Z,24.05
2024-01-16T21:22:37.028Z,22.51
2024-01-16T21:25:06.658Z,22.47
2024-01-16T21:27:35.320Z,22.12
2024-01-16T21:30:03.826Z,22.93
2024-01-16T21:32:33.976Z,23.13
2024-01-16T21:35:01.841Z,23.50
2024-01-16T21:37:29.512Z,22.71
2024-01-16T21:39:57.238Z,22.78
2024-01-16T21:42:25.267Z,23.57
2024-01-16T21:44:53.263Z,23.90
2024-01-16T21:47:21.220Z,22.61
2024-01-16T21:49:52.711Z,24.04
2024-01-16T21:52:21.519Z,22.75
2024-01-16T21:54:49.178Z,23.14
2024-01-16T21:57:17.214Z,22.08
2024-01-16T21:59:45.204Z,21.47
2024-01-16T22:02:12.968Z,23.35
2024-01-16T22:04:41.064Z,23.52
2024-01-16T22:07:10.294Z,23.05
2024-01-16T22:09:39.090Z,23.92
2024-01-16T22:12:09.047Z,22.45
2024-01-16T22:14:36.378Z,21.90
2024-01-16T22:17:04.853Z,23.59
2024-01-16T22:19:32.919Z,23.97
2024-01-16T22:22:00.606Z,23.44
2024-01-16T22:24:30.093Z,23.14
2024-01-16T22:26:58.020Z,23.79
2024-01-16T22:29:25.779Z,23.62
2024-01-16T22:31:53.759Z,23.66
2024-01-16T22:34:22.549Z,23.25
2024-01-16T22:36:50.254Z,22.57
2024-01-16T22:39:18.386Z,23.70
2024-01-16T22:41:49.269Z,22.35
2024-01-16T22:44:18.081Z,21.97
2024-01-16T22:46:45.890Z,22.71
2024-01-16T22:49:14.020Z,24.39
2024-01-16T22:51:41.772Z,22.20
2024-01-16T22:54:09.540Z,22.40
2024-01-16T22:56:37.641Z,23.19
2024-01-16T22:59:06.995Z,23.05
2024-01-16T23:01:37.206Z,22.29
2024-01-16T23:04:06.070Z,23.29
2024-01-16T23:06:34.192Z,24.09
2024-01-16T23:09:01.888Z,22.80
2024-01-16T23:11:29.828Z,22.58
2024-01-16T23:13:57.874Z,22.93
2024-01-16T23:16:27.129Z,24.64
2024-01-16T23:18:55.127Z,23.51
2024-01-16T23:21:23.108Z,23.28
2024-01-16T23:23:50.968Z,21.86
2024-01-16T23:26:19.011Z,22.14
2024-01-16T23:28:47.180Z,23.91
2024-01-16T23:31:14.904Z,22.93
2024-01-16T23:33:44.485Z,22.22
2024-01-16T23:36:12.311Z,24.32
2024-01-16T23:38:39.967Z,22.09
2024-01-16T23:41:08.763Z,22.03
2024-01-16T23:43:37.511Z,24.81
2024-01-16T23:46:05.468Z,22.98
2024-01-16T23:48:34.366Z,22.01
2024-01-16T23:51:04.582Z,24.28
2024-01-16T23:53:32.353Z,22.44
2024-01-16T23:56:00.349Z,23.38
2024-01-16T23:58:30.017Z,23.99
